Time;durP1;ratioP1;P1;durP2;ratioP2;P2;SDS_P1;SDS_P2;PMS_P1;PMS_P2;Temp;Humidity;BMP_temperature;BMP_pressure;BME280_temperature;BME280_humidity;BME280_pressure;Samples;Min_cycle;Max_cycle;Signal;HPM_P1;HPM_P2
2022/11/11 00:01:52;;;;;;;5.50;2.90;;;13.00;99.90;;;;;;10408638;28;20037;-64
2022/11/11 00:06:53;;;;;;;5.95;2.80;;;13.00;99.90;;;;;;10405187;28;20014;-64
2022/11/11 00:11:54;;;;;;;5.40;3.05;;;13.00;99.90;;;;;;10394420;28;20105;-64
2022/11/11 00:27:27;;;;;;;7.10;3.25;;;13.00;99.90;;;;;;10401275;28;20148;-65
2022/11/11 00:32:32;;;;;;;8.80;3.92;;;13.00;99.90;;;;;;10401385;28;20249;-64
2022/11/11 00:37:33;;;;;;;8.15;2.90;;;13.00;99.90;;;;;;10401198;28;20049;-64
2022/11/11 00:42:34;;;;;;;7.68;3.47;;;13.00;99.90;;;;;;10394566;28;20486;-64
2022/11/11 00:52:54;;;;;;;7.18;3.13;;;13.00;99.90;;;;;;10418537;28;20038;-64
2022/11/11 00:57:55;;;;;;;4.63;2.95;;;13.00;99.90;;;;;;10406354;28;20285;-63
2022/11/11 01:02:57;;;;;;;9.63;3.38;;;13.00;99.90;;;;;;10399401;28;20040;-64
2022/11/11 01:07:57;;;;;;;5.75;3.25;;;13.00;99.90;;;;;;10419037;28;20035;-64
2022/11/11 01:13:10;;;;;;;7.25;3.33;;;13.00;99.90;;;;;;10407453;28;20064;-64
2022/11/11 01:18:14;;;;;;;7.95;3.28;;;13.00;99.90;;;;;;10392056;28;20037;-64
2022/11/11 01:23:14;;;;;;;7.57;3.50;;;12.90;99.90;;;;;;10410037;28;20064;-63
2022/11/11 01:28:15;;;;;;;6.60;3.28;;;12.90;99.90;;;;;;10393264;28;20124;-64
2022/11/11 01:33:16;;;;;;;7.07;3.40;;;12.90;99.90;;;;;;10406208;28;20033;-64
2022/11/11 01:38:16;;;;;;;8.63;3.58;;;12.90;99.90;;;;;;10375725;28;20217;-64
2022/11/11 01:43:20;;;;;;;7.20;3.30;;;12.90;99.90;;;;;;10393081;28;20099;-63
2022/11/11 01:53:51;;;;;;;9.48;4.18;;;12.90;99.90;;;;;;10415554;28;20037;-64
2022/11/11 01:58:56;;;;;;;8.18;3.70;;;12.80;99.90;;;;;;10383253;28;20010;-65
2022/11/11 02:09:21;;;;;;;7.25;4.35;;;12.80;99.90;;;;;;10407732;28;20489;-64
2022/11/11 02:14:34;;;;;;;7.55;4.03;;;12.80;99.90;;;;;;10390489;28;20409;-63
2022/11/11 02:19:54;;;;;;;8.20;4.53;;;12.80;99.90;;;;;;10398181;28;20034;-64
2022/11/11 02:25:01;;;;;;;8.68;4.65;;;12.80;99.90;;;;;;10388957;28;20104;-64
2022/11/11 02:30:05;;;;;;;8.90;5.38;;;12.80;99.90;;;;;;10396060;28;20116;-64
2022/11/11 02:35:19;;;;;;;8.88;4.65;;;12.80;99.90;;;;;;10398258;28;20115;-64
2022/11/11 02:40:25;;;;;;;8.88;4.60;;;12.70;99.90;;;;;;10405238;28;20022;-64
2022/11/11 02:45:26;;;;;;;7.70;4.63;;;12.80;99.90;;;;;;10402303;28;20026;-64
2022/11/11 02:50:27;;;;;;;8.25;4.90;;;12.70;99.90;;;;;;10378649;28;20474;-63
2022/11/11 02:55:27;;;;;;;10.52;5.10;;;12.70;99.90;;;;;;10400091;28;20071;-64
2022/11/11 03:00:28;;;;;;;9.07;5.30;;;12.70;99.90;;;;;;10402898;28;20108;-64
2022/11/11 03:05:29;;;;;;;9.13;5.55;;;12.70;99.90;;;;;;10389649;28;20018;-66
2022/11/11 03:10:30;;;;;;;8.13;5.13;;;12.70;99.90;;;;;;10403396;28;20033;-64
2022/11/11 03:15:30;;;;;;;9.27;5.07;;;12.70;99.90;;;;;;10392543;28;20031;-64
2022/11/11 03:25:50;;;;;;;8.82;5.15;;;12.70;99.90;;;;;;10398743;28;20540;-64
2022/11/11 03:30:53;;;;;;;9.25;5.85;;;12.70;99.90;;;;;;10377200;28;20061;-64
2022/11/11 03:35:54;;;;;;;12.10;6.07;;;12.70;99.90;;;;;;10395291;28;20132;-64
2022/11/11 03:40:56;;;;;;;11.35;5.72;;;12.70;99.90;;;;;;10407692;28;20067;-64
2022/11/11 03:45:58;;;;;;;10.60;5.28;;;12.70;99.90;;;;;;10401619;28;20053;-64
2022/11/11 03:50:59;;;;;;;12.02;6.78;;;12.60;99.90;;;;;;10397186;28;20108;-63
2022/11/11 03:55:59;;;;;;;8.90;5.38;;;12.70;99.90;;;;;;10394132;28;20140;-64
2022/11/11 04:10:21;;;;;;;10.73;6.05;;;12.70;99.90;;;;;;10395630;28;20038;-64
2022/11/11 04:11:43;;;;;;;11.32;6.18;;;12.60;99.90;;;;;;10410486;28;20540;-64
2022/11/11 04:16:44;;;;;;;11.98;6.55;;;12.60;99.90;;;;;;10397169;28;20397;-64
2022/11/11 04:21:45;;;;;;;9.50;6.22;;;12.60;99.90;;;;;;10403332;28;20036;-64
2022/11/11 04:26:46;;;;;;;11.93;6.72;;;12.70;99.90;;;;;;10398262;28;20040;-63
2022/11/11 04:37:06;;;;;;;12.43;6.25;;;12.60;99.90;;;;;;10406400;28;20041;-64
2022/11/11 04:42:07;;;;;;;11.05;6.47;;;12.60;99.90;;;;;;10422858;28;20058;-64
2022/11/11 04:47:07;;;;;;;12.15;6.72;;;12.60;99.90;;;;;;10407326;28;20035;-64
2022/11/11 04:52:28;;;;;;;11.43;6.78;;;12.60;99.90;;;;;;10406043;28;20466;-64
2022/11/11 04:57:29;;;;;;;12.10;7.20;;;12.60;99.90;;;;;;10380451;28;20048;-64
2022/11/11 05:29:10;;;;;;;14.90;7.75;;;12.60;99.90;;;;;;10396664;28;20044;-64
2022/11/11 05:34:11;;;;;;;13.25;7.45;;;12.60;99.90;;;;;;10392654;28;20037;-64
2022/11/11 05:39:11;;;;;;;12.70;7.18;;;12.60;99.90;;;;;;10406650;28;20041;-63
2022/11/11 05:44:12;;;;;;;12.90;8.32;;;12.60;99.90;;;;;;10391532;28;20029;-64
2022/11/11 05:49:16;;;;;;;17.48;7.38;;;12.60;99.90;;;;;;10407241;28;20376;-64
2022/11/11 05:54:17;;;;;;;17.20;7.30;;;12.70;99.90;;;;;;10400222;28;20131;-64
2022/11/11 05:59:18;;;;;;;14.98;7.15;;;12.60;99.90;;;;;;10401760;28;20017;-64
2022/11/11 06:04:19;;;;;;;13.82;7.63;;;12.60;99.90;;;;;;10383402;28;20513;-64
2022/11/11 06:09:20;;;;;;;13.30;7.40;;;12.60;99.90;;;;;;10364356;28;20022;-64
2022/11/11 06:14:21;;;;;;;14.05;7.82;;;12.60;99.90;;;;;;10406619;28;20081;-64
2022/11/11 06:19:21;;;;;;;15.80;7.85;;;12.60;99.90;;;;;;10404125;28;20037;-64
2022/11/11 06:24:22;;;;;;;13.95;7.75;;;12.60;99.90;;;;;;10407139;28;20033;-64
2022/11/11 06:29:23;;;;;;;14.48;7.78;;;12.60;99.90;;;;;;10389954;28;20025;-64
2022/11/11 06:34:24;;;;;;;12.50;7.00;;;12.60;99.90;;;;;;10403052;28;20079;-64
2022/11/11 06:39:24;;;;;;;14.90;7.78;;;12.60;99.90;;;;;;10403428;28;20562;-65
2022/11/11 06:44:25;;;;;;;14.82;7.38;;;12.60;99.90;;;;;;10397358;28;20022;-64
2022/11/11 06:49:26;;;;;;;12.68;7.00;;;12.60;99.90;;;;;;10385017;28;20027;-63
2022/11/11 06:54:27;;;;;;;13.70;7.10;;;12.60;99.90;;;;;;10396721;28;20507;-64
2022/11/11 06:59:28;;;;;;;13.65;7.00;;;12.60;99.90;;;;;;10403439;28;20386;-64
2022/11/11 07:04:29;;;;;;;13.73;7.10;;;12.60;99.90;;;;;;10394022;28;20022;-64
2022/11/11 07:09:29;;;;;;;12.20;6.57;;;12.60;99.90;;;;;;10402524;28;20157;-64
2022/11/11 07:14:30;;;;;;;12.93;7.00;;;12.60;99.90;;;;;;10391295;28;20057;-65
2022/11/11 07:19:31;;;;;;;10.60;6.22;;;12.60;99.90;;;;;;10398717;28;20608;-64
2022/11/11 07:24:31;;;;;;;11.27;6.50;;;12.60;99.90;;;;;;10402321;28;20021;-64
2022/11/11 07:29:32;;;;;;;11.88;7.22;;;12.60;99.90;;;;;;10402000;28;20029;-64
2022/11/11 07:34:33;;;;;;;11.98;6.65;;;12.60;99.90;;;;;;10400021;28;20048;-64
2022/11/11 07:39:34;;;;;;;11.60;6.40;;;12.60;99.90;;;;;;10346240;28;20064;-64
2022/11/11 07:44:34;;;;;;;12.73;7.28;;;12.60;99.90;;;;;;10311118;28;20547;-64
2022/11/11 07:49:36;;;;;;;10.88;6.68;;;12.60;99.90;;;;;;10315970;28;20433;-65
2022/11/11 07:54:37;;;;;;;11.50;6.13;;;12.70;99.90;;;;;;10315445;28;20048;-64
2022/11/11 07:59:43;;;;;;;12.50;6.68;;;12.60;99.90;;;;;;10311802;28;20068;-64
2022/11/11 08:04:44;;;;;;;12.93;7.22;;;12.60;99.90;;;;;;10311153;28;20445;-64
2022/11/11 08:09:45;;;;;;;12.68;6.15;;;12.60;99.90;;;;;;10318127;28;20037;-64
2022/11/11 08:14:46;;;;;;;11.63;6.75;;;12.70;99.90;;;;;;10313500;28;20136;-64
2022/11/11 08:19:47;;;;;;;10.82;5.93;;;12.70;99.90;;;;;;10317290;28;20646;-62
2022/11/11 08:24:48;;;;;;;10.25;6.03;;;12.70;99.90;;;;;;10310067;28;20657;-63
2022/11/11 08:29:49;;;;;;;12.65;6.53;;;12.70;99.90;;;;;;10292562;28;20124;-63
2022/11/11 08:34:50;;;;;;;12.27;6.38;;;12.70;99.90;;;;;;10319364;28;20068;-63
2022/11/11 08:39:51;;;;;;;13.52;6.72;;;12.70;99.90;;;;;;10317367;28;20249;-63
2022/11/11 08:44:52;;;;;;;9.77;6.07;;;12.80;99.90;;;;;;10306123;28;20352;-64
2022/11/11 08:49:53;;;;;;;11.88;5.85;;;12.70;99.90;;;;;;10286732;28;20410;-63
2022/11/11 08:54:53;;;;;;;11.98;6.95;;;12.80;99.90;;;;;;10286836;28;20289;-63
2022/11/11 08:59:54;;;;;;;11.18;6.15;;;12.70;99.90;;;;;;10287198;28;20479;-62
2022/11/11 09:04:55;;;;;;;10.57;6.18;;;12.70;99.90;;;;;;10286367;28;20034;-62
2022/11/11 09:09:55;;;;;;;10.77;6.22;;;12.80;99.90;;;;;;10286824;28;20379;-62
2022/11/11 09:14:56;;;;;;;11.07;5.55;;;12.80;99.90;;;;;;10283667;28;20513;-63
2022/11/11 09:19:57;;;;;;;11.50;5.50;;;12.80;99.90;;;;;;10281214;28;20130;-63
2022/11/11 09:24:58;;;;;;;9.93;5.88;;;12.80;99.90;;;;;;10287274;28;20030;-64
2022/11/11 09:29:58;;;;;;;12.30;5.10;;;12.80;99.90;;;;;;10267515;28;20057;-62
2022/11/11 09:34:59;;;;;;;9.85;5.57;;;12.90;99.90;;;;;;10285321;28;20410;-63
2022/11/11 09:40:00;;;;;;;9.38;4.35;;;12.90;99.90;;;;;;10286849;28;20505;-62
2022/11/11 09:45:38;;;;;;;8.38;5.25;;;12.90;99.90;;;;;;10286586;28;20329;-62
2022/11/11 09:50:40;;;;;;;9.35;4.70;;;13.00;99.90;;;;;;10306025;28;20057;-62
2022/11/11 09:55:43;;;;;;;8.68;4.97;;;13.00;99.90;;;;;;10309168;28;20267;-62
2022/11/11 10:00:46;;;;;;;7.70;4.82;;;13.00;99.90;;;;;;10302950;28;20499;-62
2022/11/11 10:06:02;;;;;;;7.82;5.00;;;13.00;99.90;;;;;;10316452;28;20040;-64
2022/11/11 10:11:10;;;;;;;8.35;5.20;;;13.00;99.90;;;;;;10319577;28;20021;-65
2022/11/11 10:16:38;;;;;;;10.73;5.10;;;13.10;99.90;;;;;;10315601;28;20674;-63
2022/11/11 10:21:46;;;;;;;12.07;5.13;;;13.10;99.90;;;;;;10320084;28;20450;-63
2022/11/11 10:26:47;;;;;;;7.70;4.82;;;13.20;99.90;;;;;;10299231;28;20494;-62
2022/11/11 10:32:10;;;;;;;11.13;5.00;;;13.20;99.90;;;;;;10313353;28;20419;-62
2022/11/11 10:37:23;;;;;;;8.23;4.85;;;13.30;99.90;;;;;;10283995;28;20426;-62
2022/11/11 10:42:23;;;;;;;9.40;4.97;;;13.30;99.90;;;;;;10308762;28;20362;-62
2022/11/11 10:47:42;;;;;;;8.45;4.70;;;13.30;99.90;;;;;;10291557;28;20059;-62
2022/11/11 10:52:54;;;;;;;8.50;4.47;;;13.30;99.90;;;;;;10312044;28;20033;-63
2022/11/11 10:58:10;;;;;;;9.10;5.15;;;13.40;99.90;;;;;;10301533;28;20617;-64
2022/11/11 11:03:40;;;;;;;7.85;4.75;;;13.40;99.90;;;;;;10299082;28;20433;-64
2022/11/11 11:08:51;;;;;;;8.07;4.55;;;13.40;99.90;;;;;;10307214;28;20041;-62
2022/11/11 11:13:58;;;;;;;7.63;4.85;;;13.50;99.90;;;;;;10286389;28;20148;-63
2022/11/11 11:19:23;;;;;;;9.65;4.45;;;13.50;99.90;;;;;;10305917;28;20376;-62
2022/11/11 11:24:32;;;;;;;9.55;4.80;;;13.50;99.90;;;;;;10308715;28;20034;-62
2022/11/11 11:29:43;;;;;;;7.35;4.40;;;13.40;99.90;;;;;;10306017;28;20687;-62
2022/11/11 11:34:52;;;;;;;8.57;5.05;;;13.50;99.90;;;;;;10311131;28;20933;-63
2022/11/11 11:40:06;;;;;;;8.13;4.45;;;13.50;99.90;;;;;;10309512;28;20042;-63
2022/11/11 11:45:28;;;;;;;7.68;4.32;;;13.40;99.90;;;;;;10281409;28;20434;-63
2022/11/11 11:50:45;;;;;;;7.68;4.30;;;13.40;99.90;;;;;;10281058;28;20025;-62
2022/11/11 11:56:19;;;;;;;8.40;4.55;;;13.40;99.90;;;;;;10295620;28;20580;-63
2022/11/11 12:01:47;;;;;;;6.80;4.03;;;13.40;99.90;;;;;;10309840;28;20064;-63
2022/11/11 12:07:15;;;;;;;7.38;4.53;;;13.40;99.90;;;;;;10306615;28;20288;-62
2022/11/11 12:12:36;;;;;;;5.60;3.95;;;13.40;99.90;;;;;;10317978;28;20115;-62
2022/11/11 12:17:44;;;;;;;6.00;4.22;;;13.50;99.90;;;;;;10314203;28;20033;-65
2022/11/11 12:23:11;;;;;;;8.00;4.60;;;13.40;99.90;;;;;;10302114;28;20596;-64
2022/11/11 12:28:20;;;;;;;8.20;4.43;;;13.40;99.90;;;;;;10296619;28;20107;-69
2022/11/11 12:33:41;;;;;;;6.32;3.97;;;13.40;99.90;;;;;;10305143;28;20033;-62
2022/11/11 12:38:50;;;;;;;8.63;3.97;;;13.40;99.90;;;;;;10321645;28;20053;-64
2022/11/11 12:44:04;;;;;;;9.65;4.57;;;13.40;99.90;;;;;;10305545;28;20438;-63
2022/11/11 12:49:30;;;;;;;6.97;4.15;;;13.50;99.90;;;;;;10299970;28;20198;-70
2022/11/11 12:54:42;;;;;;;7.18;4.32;;;13.50;99.90;;;;;;10326335;28;20033;-67
2022/11/11 13:00:08;;;;;;;8.38;4.93;;;13.50;99.90;;;;;;10400481;22;20171;-62
2022/11/11 13:05:24;;;;;;;8.85;5.38;;;13.50;99.90;;;;;;10369271;28;20500;-62
2022/11/11 13:10:41;;;;;;;8.55;4.68;;;13.50;99.90;;;;;;10365882;28;20040;-61
2022/11/11 13:15:42;;;;;;;8.48;4.90;;;13.60;99.90;;;;;;10362359;28;20044;-61
2022/11/11 13:20:50;;;;;;;8.27;4.85;;;13.60;99.90;;;;;;10364994;28;20102;-61
2022/11/11 13:25:57;;;;;;;10.63;5.17;;;13.60;99.90;;;;;;10354508;28;20634;-61
2022/11/11 13:31:10;;;;;;;6.90;4.32;;;13.60;99.90;;;;;;10364135;28;20295;-61
2022/11/11 13:36:17;;;;;;;8.57;4.93;;;13.50;99.90;;;;;;10351368;28;20632;-61
2022/11/11 13:41:35;;;;;;;7.70;4.00;;;13.60;99.90;;;;;;10351514;28;20171;-62
2022/11/11 13:47:03;;;;;;;9.40;4.53;;;13.60;99.90;;;;;;10350443;28;20771;-62
2022/11/11 13:52:19;;;;;;;7.18;4.47;;;13.70;99.90;;;;;;10354764;28;20294;-63
2022/11/11 13:57:22;;;;;;;7.55;4.18;;;13.70;99.90;;;;;;10352886;28;20588;-62
2022/11/11 14:02:30;;;;;;;8.73;5.30;;;13.70;99.90;;;;;;10351766;28;20037;-63
2022/11/11 14:07:48;;;;;;;7.38;4.30;;;13.70;99.90;;;;;;10348366;28;20773;-69
2022/11/11 14:12:50;;;;;;;7.40;4.35;;;13.70;99.90;;;;;;10356807;28;20291;-62
2022/11/11 14:17:52;;;;;;;9.65;4.13;;;13.70;99.90;;;;;;10359170;28;20560;-66
2022/11/11 14:22:53;;;;;;;6.90;3.72;;;13.70;99.90;;;;;;10357977;28;20029;-63
2022/11/11 14:27:54;;;;;;;9.02;4.38;;;13.60;99.90;;;;;;10353445;28;20208;-62
2022/11/11 14:33:25;;;;;;;6.25;3.95;;;13.60;99.90;;;;;;10350810;28;20477;-62
2022/11/11 14:38:50;;;;;;;9.63;4.60;;;13.60;99.90;;;;;;10358779;28;20380;-63
2022/11/11 14:43:51;;;;;;;7.40;4.28;;;13.60;99.90;;;;;;10350839;28;20025;-62
2022/11/11 14:48:55;;;;;;;5.75;4.00;;;13.60;99.90;;;;;;10358708;28;20452;-63
2022/11/11 14:53:56;;;;;;;6.38;4.25;;;13.60;99.90;;;;;;10356202;28;20553;-62
2022/11/11 14:59:07;;;;;;;7.03;4.05;;;13.60;99.90;;;;;;10351158;28;20049;-62
2022/11/11 15:04:08;;;;;;;6.35;4.18;;;13.50;99.90;;;;;;10363094;28;20162;-62
2022/11/11 15:09:28;;;;;;;5.45;3.63;;;13.50;99.90;;;;;;10368084;28;20339;-62
2022/11/11 15:15:01;;;;;;;8.27;4.00;;;13.50;99.90;;;;;;10348595;28;20565;-63
2022/11/11 15:20:27;;;;;;;8.70;4.15;;;13.50;99.90;;;;;;10353172;28;20660;-62
2022/11/11 15:25:43;;;;;;;8.48;3.65;;;13.50;99.90;;;;;;10362092;28;20448;-63
2022/11/11 15:30:52;;;;;;;6.63;3.80;;;13.40;99.90;;;;;;10357795;28;20486;-63
2022/11/11 15:36:12;;;;;;;7.82;3.78;;;13.40;99.90;;;;;;10346797;28;20670;-62
2022/11/11 15:41:25;;;;;;;6.25;3.58;;;13.40;99.90;;;;;;10363728;28;20051;-63
2022/11/11 15:46:29;;;;;;;7.40;4.18;;;13.40;99.90;;;;;;10357353;28;20415;-61
2022/11/11 15:51:33;;;;;;;5.97;4.28;;;13.30;99.90;;;;;;10358948;28;20393;-62
2022/11/11 15:56:33;;;;;;;5.75;3.90;;;13.30;99.90;;;;;;10349303;28;20067;-61
2022/11/11 16:01:34;;;;;;;8.00;3.92;;;13.30;99.90;;;;;;10353084;28;20021;-62
2022/11/11 16:06:37;;;;;;;7.13;4.07;;;13.30;99.90;;;;;;10350920;28;20060;-61
2022/11/11 16:11:40;;;;;;;7.75;4.10;;;13.30;99.90;;;;;;10356766;28;20094;-64
2022/11/11 16:16:40;;;;;;;7.63;4.15;;;13.20;99.90;;;;;;10352922;28;20021;-62
2022/11/11 16:22:02;;;;;;;9.27;3.95;;;13.20;99.90;;;;;;10360082;28;20025;-62
2022/11/11 16:27:04;;;;;;;11.02;5.15;;;13.20;99.90;;;;;;10440532;28;20408;-63
2022/11/11 16:32:52;;;;;;;10.95;5.82;;;13.20;99.90;;;;;;10443639;28;20040;-69
2022/11/11 16:38:04;;;;;;;13.00;5.55;;;12.80;99.90;;;;;;10454900;28;20696;-63
2022/11/11 16:43:17;;;;;;;24.90;6.13;;;12.40;99.90;;;;;;10451824;28;20029;-62
2022/11/11 16:48:36;;;;;;;15.52;5.43;;;12.00;99.90;;;;;;10441276;28;20025;-62
2022/11/11 16:53:44;;;;;;;13.93;5.22;;;12.00;99.90;;;;;;10448423;28;20052;-63
2022/11/11 16:58:55;;;;;;;11.68;4.82;;;12.10;99.90;;;;;;10448246;28;20045;-63
2022/11/11 17:03:58;;;;;;;11.13;4.60;;;12.30;99.90;;;;;;10444912;28;20086;-63
2022/11/11 17:08:59;;;;;;;11.48;4.78;;;12.40;99.90;;;;;;10436198;28;20033;-62
2022/11/11 17:14:00;;;;;;;8.93;4.55;;;12.50;99.90;;;;;;10445746;28;20532;-63
2022/11/11 17:19:03;;;;;;;11.27;4.90;;;12.50;99.90;;;;;;10445696;28;20501;-63
2022/11/11 17:24:04;;;;;;;7.68;3.80;;;12.60;99.90;;;;;;10442472;28;20021;-64
2022/11/11 17:29:05;;;;;;;9.52;4.38;;;12.60;99.90;;;;;;10439944;28;20025;-63
2022/11/11 17:34:08;;;;;;;7.28;3.85;;;12.60;99.90;;;;;;10435423;28;20615;-64
2022/11/11 17:39:10;;;;;;;8.45;3.58;;;12.70;99.90;;;;;;10436444;28;20044;-62
2022/11/11 17:44:11;;;;;;;6.65;3.78;;;12.60;99.90;;;;;;10437737;28;20560;-63
2022/11/11 17:49:12;;;;;;;7.57;3.60;;;12.70;99.90;;;;;;10442369;28;20432;-60
2022/11/11 17:54:12;;;;;;;11.30;4.00;;;12.70;99.90;;;;;;10440017;28;20155;-60
2022/11/11 17:59:14;;;;;;;6.35;3.35;;;12.70;99.90;;;;;;10434243;28;20053;-60
2022/11/11 18:04:15;;;;;;;6.78;3.60;;;12.70;99.90;;;;;;10435611;28;20021;-62
2022/11/11 18:09:16;;;;;;;5.95;3.17;;;12.70;99.90;;;;;;10433574;28;20020;-62
2022/11/11 18:14:16;;;;;;;8.80;3.45;;;12.80;99.90;;;;;;10439651;28;20037;-61
2022/11/11 18:19:17;;;;;;;5.53;3.17;;;12.70;99.90;;;;;;10445116;28;20025;-62
2022/11/11 18:24:18;;;;;;;4.97;3.13;;;12.70;99.90;;;;;;10435675;28;20025;-61
2022/11/11 18:29:19;;;;;;;6.13;3.15;;;12.70;99.90;;;;;;10436860;28;20227;-62
2022/11/11 18:34:19;;;;;;;6.03;3.10;;;12.70;99.90;;;;;;10433022;28;20448;-61
2022/11/11 18:39:20;;;;;;;6.82;2.75;;;12.70;99.90;;;;;;10440018;28;20390;-62
2022/11/11 18:44:21;;;;;;;5.93;2.97;;;12.70;99.90;;;;;;10438028;28;20101;-61
2022/11/11 18:49:22;;;;;;;6.13;2.97;;;12.70;99.90;;;;;;10438416;28;20490;-61
2022/11/11 18:54:22;;;;;;;5.20;2.97;;;12.70;99.90;;;;;;10436407;28;20029;-61
2022/11/11 18:59:23;;;;;;;5.88;2.30;;;12.60;99.90;;;;;;10425140;28;20109;-62
2022/11/11 19:04:24;;;;;;;4.35;2.85;;;12.70;99.90;;;;;;10447865;28;20017;-62
2022/11/11 19:09:25;;;;;;;7.38;3.10;;;12.50;99.90;;;;;;10448383;28;20032;-62
2022/11/11 19:14:26;;;;;;;7.57;2.75;;;12.60;99.90;;;;;;10441165;28;20674;-62
2022/11/11 19:19:27;;;;;;;5.30;3.08;;;12.60;99.90;;;;;;10443844;28;20089;-62
2022/11/11 19:24:28;;;;;;;5.57;2.85;;;12.60;99.90;;;;;;10444357;28;20058;-63
2022/11/11 19:29:29;;;;;;;6.72;3.13;;;12.60;99.90;;;;;;10447994;28;20013;-63
2022/11/11 19:34:29;;;;;;;5.50;3.08;;;12.60;99.90;;;;;;10440443;28;20048;-63
2022/11/11 19:39:30;;;;;;;5.68;3.03;;;12.60;99.90;;;;;;10447402;28;20017;-62
2022/11/11 19:44:31;;;;;;;6.20;3.10;;;12.60;99.90;;;;;;10429193;28;20507;-63
2022/11/11 19:49:31;;;;;;;6.45;3.20;;;12.60;99.90;;;;;;10448202;28;20204;-63
2022/11/11 19:54:32;;;;;;;8.40;3.25;;;12.60;99.90;;;;;;10438418;28;20048;-62
2022/11/11 19:59:33;;;;;;;6.93;3.47;;;12.50;99.90;;;;;;10444807;28;20049;-62
2022/11/11 20:04:33;;;;;;;7.50;3.58;;;12.50;99.90;;;;;;10438784;28;20029;-62
2022/11/11 20:09:34;;;;;;;6.00;2.63;;;12.50;99.90;;;;;;10440058;28;20035;-63
2022/11/11 20:14:35;;;;;;;6.00;3.20;;;12.50;99.90;;;;;;10443709;28;20126;-63
2022/11/11 20:19:35;;;;;;;4.93;2.90;;;12.50;99.90;;;;;;10437004;28;20580;-62
2022/11/11 20:24:36;;;;;;;7.93;3.22;;;12.50;99.90;;;;;;10446200;28;20029;-62
2022/11/11 20:29:37;;;;;;;6.00;2.88;;;12.40;99.90;;;;;;10438994;28;20020;-63
2022/11/11 20:34:38;;;;;;;4.18;2.80;;;12.50;99.90;;;;;;10436332;28;20263;-63
2022/11/11 20:39:38;;;;;;;4.57;3.03;;;12.40;99.90;;;;;;10436088;28;20033;-63
2022/11/11 20:44:39;;;;;;;4.97;2.95;;;12.40;99.90;;;;;;10421127;28;20052;-62
2022/11/11 20:49:41;;;;;;;5.47;2.80;;;12.40;99.90;;;;;;10418133;28;20025;-63
2022/11/11 20:54:42;;;;;;;6.90;3.33;;;12.40;99.90;;;;;;10438756;28;20037;-63
2022/11/11 20:59:42;;;;;;;4.43;2.83;;;12.40;99.90;;;;;;10425121;28;20088;-62
2022/11/11 21:04:43;;;;;;;5.07;3.22;;;12.30;99.90;;;;;;10441090;28;20039;-62
2022/11/11 21:09:44;;;;;;;5.78;2.80;;;12.30;99.90;;;;;;10445676;28;20035;-62
2022/11/11 21:14:46;;;;;;;7.25;3.22;;;12.30;99.90;;;;;;10450365;28;20045;-62
2022/11/11 21:19:46;;;;;;;5.72;3.22;;;12.40;99.90;;;;;;10454772;28;20021;-62
2022/11/11 21:24:47;;;;;;;4.05;2.97;;;12.30;99.90;;;;;;10422490;28;20040;-63
2022/11/11 21:29:48;;;;;;;7.85;4.22;;;12.30;99.90;;;;;;10427346;28;20043;-63
2022/11/11 21:34:49;;;;;;;6.35;4.57;;;12.20;99.90;;;;;;10427097;28;20039;-63
2022/11/11 21:39:50;;;;;;;8.32;5.25;;;12.20;99.90;;;;;;10423750;28;20018;-62
2022/11/11 21:44:50;;;;;;;8.20;5.53;;;12.20;99.90;;;;;;10421004;28;20025;-63
2022/11/11 21:49:51;;;;;;;10.57;5.68;;;12.20;99.90;;;;;;10417574;28;20036;-62
2022/11/11 21:54:52;;;;;;;10.65;6.10;;;12.20;99.90;;;;;;10412676;28;20278;-62
2022/11/11 21:59:52;;;;;;;8.90;5.80;;;12.20;99.90;;;;;;10420268;28;20042;-62
2022/11/11 22:04:53;;;;;;;9.57;6.00;;;12.20;99.90;;;;;;10427379;28;20036;-62
2022/11/11 22:09:53;;;;;;;7.80;5.25;;;12.20;99.90;;;;;;10448161;28;20029;-62
2022/11/11 22:14:54;;;;;;;9.98;5.68;;;12.10;99.90;;;;;;10448605;28;20155;-62
2022/11/11 22:19:55;;;;;;;8.85;5.70;;;12.10;99.90;;;;;;10438790;28;20115;-62
2022/11/11 22:24:56;;;;;;;8.40;5.45;;;12.10;99.90;;;;;;10427336;28;20623;-62
2022/11/11 22:30:00;;;;;;;9.48;5.68;;;12.10;99.90;;;;;;10434132;28;20033;-62
2022/11/11 22:35:01;;;;;;;8.02;5.05;;;12.10;99.90;;;;;;10438830;28;20033;-62
2022/11/11 22:40:10;;;;;;;8.88;5.15;;;12.00;99.90;;;;;;10429187;28;20037;-62
2022/11/11 22:45:11;;;;;;;8.90;5.15;;;12.00;99.90;;;;;;10437999;28;20055;-63
2022/11/11 22:50:12;;;;;;;8.45;5.03;;;12.00;99.90;;;;;;10430444;28;20569;-62
2022/11/11 22:55:12;;;;;;;6.80;4.32;;;12.00;99.90;;;;;;10432762;28;20025;-63
2022/11/11 23:00:13;;;;;;;5.53;4.47;;;12.00;99.90;;;;;;10438967;28;20041;-62
2022/11/11 23:05:15;;;;;;;7.80;4.55;;;12.00;99.90;;;;;;10436873;28;20028;-62
2022/11/11 23:10:16;;;;;;;10.07;4.55;;;11.90;99.90;;;;;;10437863;28;20023;-63
2022/11/11 23:15:16;;;;;;;7.85;4.10;;;11.90;99.90;;;;;;10443450;28;20032;-62
2022/11/11 23:20:17;;;;;;;7.57;4.15;;;11.90;99.90;;;;;;10443744;28;20334;-63
2022/11/11 23:25:18;;;;;;;5.20;3.72;;;11.90;99.90;;;;;;10443588;28;20028;-62
2022/11/11 23:30:18;;;;;;;8.25;4.85;;;11.90;99.90;;;;;;10443804;28;20017;-62
2022/11/11 23:35:19;;;;;;;7.53;4.18;;;11.90;99.90;;;;;;10441989;28;20113;-62
2022/11/11 23:40:20;;;;;;;7.55;4.32;;;11.90;99.90;;;;;;10451908;28;20037;-62
2022/11/11 23:45:20;;;;;;;7.15;4.40;;;11.80;99.90;;;;;;10448441;28;20031;-62
2022/11/11 23:50:21;;;;;;;6.22;4.03;;;11.80;99.90;;;;;;10443794;28;20082;-62
2022/11/11 23:55:22;;;;;;;6.97;4.30;;;11.80;99.90;;;;;;10442192;28;20163;-62
